sensor_id;sensor_type;location;lat;lon;timestamp;temperature;humidity
44579;DHT22;37422;51.402;0.016;2023-02-08T00:01:35;0.00;99.90
44579;DHT22;37422;51.402;0.016;2023-02-08T00:04:03;-0.10;99.90
44579;DHT22;37422;51.402;0.016;2023-02-08T00:06:31;-0.10;99.90
44579;DHT22;37422;51.402;0.016;2023-02-08T00:09:05;-0.10;99.90
44579;DHT22;37422;51.402;0.016;2023-02-08T00:11:45;-0.10;99.90
44579;DHT22;37422;51.402;0.016;2023-02-08T00:14:15;-0.10;99.90
44579;DHT22;37422;51.402;0.016;2023-02-08T00:16:42;-0.10;99.90
44579;DHT22;37422;51.402;0.016;2023-02-08T00:19:16;0.10;99.90
44579;DHT22;37422;51.402;0.016;2023-02-08T00:21:44;-0.10;99.90
44579;DHT22;37422;51.402;0.016;2023-02-08T00:24:12;-0.10;99.90
44579;DHT22;37422;51.402;0.016;2023-02-08T00:26:39;-0.20;99.90
44579;DHT22;37422;51.402;0.016;2023-02-08T00:29:07;-0.10;99.90
44579;DHT22;37422;51.402;0.016;2023-02-08T00:31:35;-0.10;99.90
44579;DHT22;37422;51.402;0.016;2023-02-08T00:34:03;-0.20;99.90
44579;DHT22;37422;51.402;0.016;2023-02-08T00:36:31;-0.10;99.90
44579;DHT22;37422;51.402;0.016;2023-02-08T00:39:00;-0.20;99.90
44579;DHT22;37422;51.402;0.016;2023-02-08T00:41:28;-0.20;99.90
44579;DHT22;37422;51.402;0.016;2023-02-08T00:43:56;-0.20;99.90
44579;DHT22;37422;51.402;0.016;2023-02-08T00:46:24;-0.20;99.90
44579;DHT22;37422;51.402;0.016;2023-02-08T00:48:53;-0.30;99.90
44579;DHT22;37422;51.402;0.016;2023-02-08T00:51:20;-0.30;99.90
44579;DHT22;37422;51.402;0.016;2023-02-08T00:53:49;-0.30;99.90
44579;DHT22;37422;51.402;0.016;2023-02-08T00:56:16;-0.30;99.90
44579;DHT22;37422;51.402;0.016;2023-02-08T00:58:45;-0.40;99.90
44579;DHT22;37422;51.402;0.016;2023-02-08T01:01:13;-0.40;99.90
44579;DHT22;37422;51.402;0.016;2023-02-08T01:03:42;-0.40;99.90
44579;DHT22;37422;51.402;0.016;2023-02-08T01:06:13;-0.40;99.90
44579;DHT22;37422;51.402;0.016;2023-02-08T01:08:42;-0.40;99.90
44579;DHT22;37422;51.402;0.016;2023-02-08T01:11:16;-0.50;99.90
44579;DHT22;37422;51.402;0.016;2023-02-08T01:13:45;-0.50;99.90
44579;DHT22;37422;51.402;0.016;2023-02-08T01:16:19;-0.50;99.90
44579;DHT22;37422;51.402;0.016;2023-02-08T01:18:49;-0.50;99.90
44579;DHT22;37422;51.402;0.016;2023-02-08T01:21:22;-0.50;99.90
44579;DHT22;37422;51.402;0.016;2023-02-08T01:23:50;-0.50;99.90
44579;DHT22;37422;51.402;0.016;2023-02-08T01:26:19;-0.60;99.90
44579;DHT22;37422;51.402;0.016;2023-02-08T01:28:49;-0.60;99.90
44579;DHT22;37422;51.402;0.016;2023-02-08T01:31:19;-0.60;99.90
44579;DHT22;37422;51.402;0.016;2023-02-08T01:33:47;-0.60;99.90
44579;DHT22;37422;51.402;0.016;2023-02-08T01:36:15;-0.70;99.90
44579;DHT22;37422;51.402;0.016;2023-02-08T01:38:44;-0.70;99.90
44579;DHT22;37422;51.402;0.016;2023-02-08T01:41:19;-0.70;99.90
44579;DHT22;37422;51.402;0.016;2023-02-08T01:46:32;-0.80;99.90
44579;DHT22;37422;51.402;0.016;2023-02-08T01:49:10;-0.80;99.90
44579;DHT22;37422;51.402;0.016;2023-02-08T01:52:05;-0.80;99.90
44579;DHT22;37422;51.402;0.016;2023-02-08T01:54:35;-0.80;99.90
44579;DHT22;37422;51.402;0.016;2023-02-08T01:57:05;-0.50;99.90
44579;DHT22;37422;51.402;0.016;2023-02-08T01:59:43;-0.90;99.90
44579;DHT22;37422;51.402;0.016;2023-02-08T02:02:14;-0.90;99.90
44579;DHT22;37422;51.402;0.016;2023-02-08T02:04:43;-0.90;99.90
44579;DHT22;37422;51.402;0.016;2023-02-08T02:07:11;-0.90;99.90
44579;DHT22;37422;51.402;0.016;2023-02-08T02:09:54;-0.90;99.90
44579;DHT22;37422;51.402;0.016;2023-02-08T02:12:23;-0.90;99.90
44579;DHT22;37422;51.402;0.016;2023-02-08T02:14:51;-1.00;99.90
44579;DHT22;37422;51.402;0.016;2023-02-08T02:17:19;-1.00;99.90
44579;DHT22;37422;51.402;0.016;2023-02-08T02:22:55;-1.00;99.90
44579;DHT22;37422;51.402;0.016;2023-02-08T02:31:28;-1.10;99.90
44579;DHT22;37422;51.402;0.016;2023-02-08T02:34:19;-1.20;99.90
44579;DHT22;37422;51.402;0.016;2023-02-08T02:37:12;-1.20;99.90
44579;DHT22;37422;51.402;0.016;2023-02-08T02:40:02;-1.20;99.90
44579;DHT22;37422;51.402;0.016;2023-02-08T02:48:58;-1.20;99.90
44579;DHT22;37422;51.402;0.016;2023-02-08T02:51:39;-1.20;99.90
44579;DHT22;37422;51.402;0.016;2023-02-08T02:57:15;-1.30;99.90
44579;DHT22;37422;51.402;0.016;2023-02-08T02:59:44;-1.30;99.90
44579;DHT22;37422;51.402;0.016;2023-02-08T03:02:13;-1.30;99.90
44579;DHT22;37422;51.402;0.016;2023-02-08T03:08:00;-1.40;99.90
44579;DHT22;37422;51.402;0.016;2023-02-08T03:16:18;-1.50;99.90
44579;DHT22;37422;51.402;0.016;2023-02-08T03:21:47;-1.50;99.90
44579;DHT22;37422;51.402;0.016;2023-02-08T03:27:16;-1.50;99.90
44579;DHT22;37422;51.402;0.016;2023-02-08T03:30:05;-1.50;99.90
44579;DHT22;37422;51.402;0.016;2023-02-08T03:32:47;-1.60;99.90
44579;DHT22;37422;51.402;0.016;2023-02-08T03:36:13;-1.60;99.90
44579;DHT22;37422;51.402;0.016;2023-02-08T03:38:26;-1.60;99.90
44579;DHT22;37422;51.402;0.016;2023-02-08T03:40:57;-1.60;99.90
44579;DHT22;37422;51.402;0.016;2023-02-08T03:43:30;-1.60;99.90
44579;DHT22;37422;51.402;0.016;2023-02-08T03:46:10;-1.60;99.90
44579;DHT22;37422;51.402;0.016;2023-02-08T03:48:43;-1.70;99.90
44579;DHT22;37422;51.402;0.016;2023-02-08T03:51:14;-1.70;99.90
44579;DHT22;37422;51.402;0.016;2023-02-08T03:53:44;-1.60;99.90
44579;DHT22;37422;51.402;0.016;2023-02-08T03:56:17;-1.70;99.90
44579;DHT22;37422;51.402;0.016;2023-02-08T03:59:02;-1.70;99.90
44579;DHT22;37422;51.402;0.016;2023-02-08T04:01:59;-1.70;99.90
44579;DHT22;37422;51.402;0.016;2023-02-08T04:04:31;-1.70;99.90
44579;DHT22;37422;51.402;0.016;2023-02-08T04:07:01;-1.80;99.90
44579;DHT22;37422;51.402;0.016;2023-02-08T04:09:29;-1.80;99.90
44579;DHT22;37422;51.402;0.016;2023-02-08T04:11:57;-1.80;99.90
44579;DHT22;37422;51.402;0.016;2023-02-08T04:14:25;-1.80;99.90
44579;DHT22;37422;51.402;0.016;2023-02-08T04:16:53;-1.80;99.90
44579;DHT22;37422;51.402;0.016;2023-02-08T04:19:20;-1.80;99.90
44579;DHT22;37422;51.402;0.016;2023-02-08T04:21:49;-1.70;99.90
44579;DHT22;37422;51.402;0.016;2023-02-08T04:24:16;-1.70;99.90
44579;DHT22;37422;51.402;0.016;2023-02-08T04:26:44;-1.70;99.90
44579;DHT22;37422;51.402;0.016;2023-02-08T04:29:12;-1.70;99.90
44579;DHT22;37422;51.402;0.016;2023-02-08T04:31:40;-1.70;99.90
44579;DHT22;37422;51.402;0.016;2023-02-08T04:34:08;-1.80;99.90
44579;DHT22;37422;51.402;0.016;2023-02-08T04:36:36;-1.80;99.90
44579;DHT22;37422;51.402;0.016;2023-02-08T04:39:03;-1.80;99.90
44579;DHT22;37422;51.402;0.016;2023-02-08T04:41:31;-1.80;99.90
44579;DHT22;37422;51.402;0.016;2023-02-08T04:43:59;-1.80;99.90
44579;DHT22;37422;51.402;0.016;2023-02-08T04:46:30;-1.90;99.90
44579;DHT22;37422;51.402;0.016;2023-02-08T04:48:57;-1.90;99.90
44579;DHT22;37422;51.402;0.016;2023-02-08T04:51:25;-2.00;99.90
44579;DHT22;37422;51.402;0.016;2023-02-08T04:53:53;-2.00;99.90
44579;DHT22;37422;51.402;0.016;2023-02-08T04:56:21;-2.00;99.90
44579;DHT22;37422;51.402;0.016;2023-02-08T04:58:49;-2.00;99.90
44579;DHT22;37422;51.402;0.016;2023-02-08T05:01:17;-2.00;99.90
44579;DHT22;37422;51.402;0.016;2023-02-08T05:03:45;-2.10;99.90
44579;DHT22;37422;51.402;0.016;2023-02-08T05:06:13;-2.10;99.90
44579;DHT22;37422;51.402;0.016;2023-02-08T05:08:41;-2.00;99.90
44579;DHT22;37422;51.402;0.016;2023-02-08T05:11:09;-2.10;99.90
44579;DHT22;37422;51.402;0.016;2023-02-08T05:13:36;-2.10;99.90
44579;DHT22;37422;51.402;0.016;2023-02-08T05:16:04;-2.20;99.90
44579;DHT22;37422;51.402;0.016;2023-02-08T05:18:32;-2.20;99.90
44579;DHT22;37422;51.402;0.016;2023-02-08T05:21:00;-2.20;99.90
44579;DHT22;37422;51.402;0.016;2023-02-08T05:23:29;-2.20;99.90
44579;DHT22;37422;51.402;0.016;2023-02-08T05:25:57;-2.20;99.90
44579;DHT22;37422;51.402;0.016;2023-02-08T05:28:25;-2.10;99.90
44579;DHT22;37422;51.402;0.016;2023-02-08T05:30:53;-2.30;99.90
44579;DHT22;37422;51.402;0.016;2023-02-08T05:33:21;-2.30;99.90
44579;DHT22;37422;51.402;0.016;2023-02-08T05:35:48;-2.30;99.90
44579;DHT22;37422;51.402;0.016;2023-02-08T05:38:16;-2.30;99.90
44579;DHT22;37422;51.402;0.016;2023-02-08T05:40:44;-2.40;99.90
44579;DHT22;37422;51.402;0.016;2023-02-08T05:43:11;-2.30;99.90
44579;DHT22;37422;51.402;0.016;2023-02-08T05:45:39;-2.40;99.90
44579;DHT22;37422;51.402;0.016;2023-02-08T05:48:07;-2.30;99.90
44579;DHT22;37422;51.402;0.016;2023-02-08T05:50:34;-2.30;99.90
44579;DHT22;37422;51.402;0.016;2023-02-08T05:53:02;-2.30;99.90
44579;DHT22;37422;51.402;0.016;2023-02-08T05:55:30;-2.30;99.90
44579;DHT22;37422;51.402;0.016;2023-02-08T05:57:57;-2.40;99.90
44579;DHT22;37422;51.402;0.016;2023-02-08T06:00:25;-2.00;99.90
44579;DHT22;37422;51.402;0.016;2023-02-08T06:02:53;-2.30;99.90
44579;DHT22;37422;51.402;0.016;2023-02-08T06:05:21;-2.30;99.90
44579;DHT22;37422;51.402;0.016;2023-02-08T06:07:48;-2.40;99.90
44579;DHT22;37422;51.402;0.016;2023-02-08T06:10:16;-2.10;99.90
44579;DHT22;37422;51.402;0.016;2023-02-08T06:12:44;-2.40;99.90
44579;DHT22;37422;51.402;0.016;2023-02-08T06:15:12;-2.40;99.90
44579;DHT22;37422;51.402;0.016;2023-02-08T06:17:40;-2.40;99.90
44579;DHT22;37422;51.402;0.016;2023-02-08T06:20:08;-2.50;99.90
44579;DHT22;37422;51.402;0.016;2023-02-08T06:22:38;-2.50;99.90
44579;DHT22;37422;51.402;0.016;2023-02-08T06:25:06;-2.50;99.90
44579;DHT22;37422;51.402;0.016;2023-02-08T06:27:34;-2.50;99.90
44579;DHT22;37422;51.402;0.016;2023-02-08T06:30:02;-2.40;99.90
44579;DHT22;37422;51.402;0.016;2023-02-08T06:32:31;-2.50;99.90
44579;DHT22;37422;51.402;0.016;2023-02-08T06:34:58;-2.50;99.90
44579;DHT22;37422;51.402;0.016;2023-02-08T06:37:26;-2.50;99.90
44579;DHT22;37422;51.402;0.016;2023-02-08T06:39:54;-2.50;99.90
44579;DHT22;37422;51.402;0.016;2023-02-08T06:42:22;-2.30;99.90
44579;DHT22;37422;51.402;0.016;2023-02-08T06:44:49;-2.60;99.90
44579;DHT22;37422;51.402;0.016;2023-02-08T06:47:22;-2.60;99.90
44579;DHT22;37422;51.402;0.016;2023-02-08T06:49:51;-2.60;99.90
44579;DHT22;37422;51.402;0.016;2023-02-08T06:52:19;-2.60;99.90
44579;DHT22;37422;51.402;0.016;2023-02-08T06:54:48;-2.60;99.90
44579;DHT22;37422;51.402;0.016;2023-02-08T06:57:16;-2.60;99.90
44579;DHT22;37422;51.402;0.016;2023-02-08T06:59:44;-2.50;99.90
44579;DHT22;37422;51.402;0.016;2023-02-08T07:02:14;-2.60;99.90
44579;DHT22;37422;51.402;0.016;2023-02-08T07:04:42;-2.60;99.90
44579;DHT22;37422;51.402;0.016;2023-02-08T07:07:15;-2.60;99.90
44579;DHT22;37422;51.402;0.016;2023-02-08T07:09:46;-2.60;99.90
44579;DHT22;37422;51.402;0.016;2023-02-08T07:12:14;-2.30;99.90
44579;DHT22;37422;51.402;0.016;2023-02-08T07:14:42;-2.60;99.90
44579;DHT22;37422;51.402;0.016;2023-02-08T07:17:13;-2.60;99.90
44579;DHT22;37422;51.402;0.016;2023-02-08T07:19:40;-2.60;99.90
44579;DHT22;37422;51.402;0.016;2023-02-08T07:22:08;-2.60;99.90
44579;DHT22;37422;51.402;0.016;2023-02-08T07:24:38;-2.30;99.90
44579;DHT22;37422;51.402;0.016;2023-02-08T07:27:07;-2.70;99.90
44579;DHT22;37422;51.402;0.016;2023-02-08T07:29:35;-2.70;99.90
44579;DHT22;37422;51.402;0.016;2023-02-08T07:32:04;-2.70;99.90
44579;DHT22;37422;51.402;0.016;2023-02-08T07:34:34;-2.70;99.90
44579;DHT22;37422;51.402;0.016;2023-02-08T07:37:03;-2.70;99.90
44579;DHT22;37422;51.402;0.016;2023-02-08T07:39:31;-2.70;99.90
44579;DHT22;37422;51.402;0.016;2023-02-08T07:41:58;-2.70;99.90
44579;DHT22;37422;51.402;0.016;2023-02-08T07:44:30;-2.70;99.90
44579;DHT22;37422;51.402;0.016;2023-02-08T07:46:58;-2.70;99.90
44579;DHT22;37422;51.402;0.016;2023-02-08T07:49:28;-2.70;99.90
44579;DHT22;37422;51.402;0.016;2023-02-08T07:51:55;-2.60;99.90
44579;DHT22;37422;51.402;0.016;2023-02-08T07:54:23;-2.60;99.90
44579;DHT22;37422;51.402;0.016;2023-02-08T07:56:51;-2.60;99.90
44579;DHT22;37422;51.402;0.016;2023-02-08T07:59:19;-2.50;99.90
44579;DHT22;37422;51.402;0.016;2023-02-08T08:01:47;-2.50;99.90
44579;DHT22;37422;51.402;0.016;2023-02-08T08:04:15;-2.50;99.90
44579;DHT22;37422;51.402;0.016;2023-02-08T08:06:43;-2.60;99.90
44579;DHT22;37422;51.402;0.016;2023-02-08T08:09:13;-2.40;99.90
44579;DHT22;37422;51.402;0.016;2023-02-08T08:11:41;-2.40;99.90
44579;DHT22;37422;51.402;0.016;2023-02-08T08:14:09;-2.40;99.90
44579;DHT22;37422;51.402;0.016;2023-02-08T08:16:37;-2.40;99.90
44579;DHT22;37422;51.402;0.016;2023-02-08T08:19:04;-2.40;99.90
44579;DHT22;37422;51.402;0.016;2023-02-08T08:21:32;-2.30;99.90
44579;DHT22;37422;51.402;0.016;2023-02-08T08:24:00;-2.30;99.90
44579;DHT22;37422;51.402;0.016;2023-02-08T08:26:27;-2.30;99.90
44579;DHT22;37422;51.402;0.016;2023-02-08T08:28:56;-2.10;99.90
44579;DHT22;37422;51.402;0.016;2023-02-08T08:31:24;-2.20;99.90
44579;DHT22;37422;51.402;0.016;2023-02-08T08:33:51;-2.10;99.90
44579;DHT22;37422;51.402;0.016;2023-02-08T08:36:30;-2.00;99.90
44579;DHT22;37422;51.402;0.016;2023-02-08T08:38:59;-1.80;99.90
44579;DHT22;37422;51.402;0.016;2023-02-08T08:41:26;-1.40;99.90
44579;DHT22;37422;51.402;0.016;2023-02-08T08:43:54;-0.90;99.90
44579;DHT22;37422;51.402;0.016;2023-02-08T08:46:22;-0.50;99.90
44579;DHT22;37422;51.402;0.016;2023-02-08T08:48:51;0.20;99.90
44579;DHT22;37422;51.402;0.016;2023-02-08T08:51:18;0.70;99.90
44579;DHT22;37422;51.402;0.016;2023-02-08T08:53:46;1.00;99.90
44579;DHT22;37422;51.402;0.016;2023-02-08T08:56:13;1.50;99.90
44579;DHT22;37422;51.402;0.016;2023-02-08T08:58:41;1.90;99.90
44579;DHT22;37422;51.402;0.016;2023-02-08T09:01:10;2.40;99.90
44579;DHT22;37422;51.402;0.016;2023-02-08T09:03:38;2.80;99.90
44579;DHT22;37422;51.402;0.016;2023-02-08T09:06:06;3.30;99.90
44579;DHT22;37422;51.402;0.016;2023-02-08T09:08:33;3.70;99.90
44579;DHT22;37422;51.402;0.016;2023-02-08T09:11:06;4.00;99.90
44579;DHT22;37422;51.402;0.016;2023-02-08T09:13:35;4.30;99.90
44579;DHT22;37422;51.402;0.016;2023-02-08T09:16:08;4.60;99.90
44579;DHT22;37422;51.402;0.016;2023-02-08T09:18:37;4.90;99.90
44579;DHT22;37422;51.402;0.016;2023-02-08T09:21:09;5.20;99.90
44579;DHT22;37422;51.402;0.016;2023-02-08T09:23:37;5.50;99.90
44579;DHT22;37422;51.402;0.016;2023-02-08T09:26:08;5.60;99.90
44579;DHT22;37422;51.402;0.016;2023-02-08T09:28:36;5.70;99.90
44579;DHT22;37422;51.402;0.016;2023-02-08T09:31:22;5.80;99.90
44579;DHT22;37422;51.402;0.016;2023-02-08T09:34:09;5.70;99.90
44579;DHT22;37422;51.402;0.016;2023-02-08T09:36:39;5.40;99.90
44579;DHT22;37422;51.402;0.016;2023-02-08T09:39:13;5.30;99.90
44579;DHT22;37422;51.402;0.016;2023-02-08T09:42:05;5.10;99.90
44579;DHT22;37422;51.402;0.016;2023-02-08T09:45:32;5.10;99.90
44579;DHT22;37422;51.402;0.016;2023-02-08T09:48:18;4.90;99.90
44579;DHT22;37422;51.402;0.016;2023-02-08T09:50:55;4.90;99.90
44579;DHT22;37422;51.402;0.016;2023-02-08T09:53:32;4.80;99.90
44579;DHT22;37422;51.402;0.016;2023-02-08T09:56:35;4.90;99.90
44579;DHT22;37422;51.402;0.016;2023-02-08T09:59:40;5.10;99.90
44579;DHT22;37422;51.402;0.016;2023-02-08T10:02:25;5.30;99.90
44579;DHT22;37422;51.402;0.016;2023-02-08T10:05:22;5.40;99.90
44579;DHT22;37422;51.402;0.016;2023-02-08T10:08:19;5.40;99.90
44579;DHT22;37422;51.402;0.016;2023-02-08T10:14:32;5.50;99.90
44579;DHT22;37422;51.402;0.016;2023-02-08T10:26:59;6.10;99.90
44579;DHT22;37422;51.402;0.016;2023-02-08T10:30:18;6.60;99.90
44579;DHT22;37422;51.402;0.016;2023-02-08T10:32:59;6.90;99.90
44579;DHT22;37422;51.402;0.016;2023-02-08T10:35:47;7.20;99.90
44579;DHT22;37422;51.402;0.016;2023-02-08T10:38:29;7.40;99.90
44579;DHT22;37422;51.402;0.016;2023-02-08T10:41:43;7.60;99.90
44579;DHT22;37422;51.402;0.016;2023-02-08T10:44:33;7.80;99.90
44579;DHT22;37422;51.402;0.016;2023-02-08T10:47:38;8.50;99.90
44579;DHT22;37422;51.402;0.016;2023-02-08T10:50:36;9.50;99.90
44579;DHT22;37422;51.402;0.016;2023-02-08T10:53:05;10.40;99.90
44579;DHT22;37422;51.402;0.016;2023-02-08T10:55:38;10.90;99.90
44579;DHT22;37422;51.402;0.016;2023-02-08T10:58:13;11.30;99.90
44579;DHT22;37422;51.402;0.016;2023-02-08T11:00:42;11.40;99.90
44579;DHT22;37422;51.402;0.016;2023-02-08T11:03:23;11.70;99.90
44579;DHT22;37422;51.402;0.016;2023-02-08T11:05:52;11.80;99.90
44579;DHT22;37422;51.402;0.016;2023-02-08T11:08:21;12.10;99.90
44579;DHT22;37422;51.402;0.016;2023-02-08T11:13:45;13.10;99.90
44579;DHT22;37422;51.402;0.016;2023-02-08T11:16:22;13.60;97.70
44579;DHT22;37422;51.402;0.016;2023-02-08T11:18:53;14.20;96.40
44579;DHT22;37422;51.402;0.016;2023-02-08T11:21:36;14.80;98.20
44579;DHT22;37422;51.402;0.016;2023-02-08T11:24:29;15.50;95.70
44579;DHT22;37422;51.402;0.016;2023-02-08T11:26:53;16.10;96.50
44579;DHT22;37422;51.402;0.016;2023-02-08T11:29:25;16.50;95.80
44579;DHT22;37422;51.402;0.016;2023-02-08T11:32:01;17.00;94.90
44579;DHT22;37422;51.402;0.016;2023-02-08T11:34:31;17.60;93.10
44579;DHT22;37422;51.402;0.016;2023-02-08T11:37:18;18.10;92.70
44579;DHT22;37422;51.402;0.016;2023-02-08T11:39:52;18.40;90.90
44579;DHT22;37422;51.402;0.016;2023-02-08T11:42:42;18.50;88.80
44579;DHT22;37422;51.402;0.016;2023-02-08T11:45:44;18.50;78.80
44579;DHT22;37422;51.402;0.016;2023-02-08T11:48:23;18.50;81.70
44579;DHT22;37422;51.402;0.016;2023-02-08T11:50:57;18.80;83.60
44579;DHT22;37422;51.402;0.016;2023-02-08T11:53:31;19.00;82.20
44579;DHT22;37422;51.402;0.016;2023-02-08T11:56:02;19.30;83.70
44579;DHT22;37422;51.402;0.016;2023-02-08T11:58:31;19.30;82.50
44579;DHT22;37422;51.402;0.016;2023-02-08T12:01:19;19.50;81.80
44579;DHT22;37422;51.402;0.016;2023-02-08T12:03:49;19.50;74.70
44579;DHT22;37422;51.402;0.016;2023-02-08T12:06:27;19.50;80.20
44579;DHT22;37422;51.402;0.016;2023-02-08T12:28:19;19.30;68.90
44579;DHT22;37422;51.402;0.016;2023-02-08T12:34:00;19.30;62.70
44579;DHT22;37422;51.402;0.016;2023-02-08T12:47:42;19.20;62.60
44579;DHT22;37422;51.402;0.016;2023-02-08T12:50:50;19.20;63.40
44579;DHT22;37422;51.402;0.016;2023-02-08T12:56:16;18.80;60.00
44579;DHT22;37422;51.402;0.016;2023-02-08T12:58:48;18.80;60.40
44579;DHT22;37422;51.402;0.016;2023-02-08T13:01:23;18.90;61.30
44579;DHT22;37422;51.402;0.016;2023-02-08T13:06:48;18.80;60.10
44579;DHT22;37422;51.402;0.016;2023-02-08T13:12:03;18.60;60.20
44579;DHT22;37422;51.402;0.016;2023-02-08T13:15:01;18.00;61.80
44579;DHT22;37422;51.402;0.016;2023-02-08T13:20:50;17.50;59.60
44579;DHT22;37422;51.402;0.016;2023-02-08T13:25:52;16.60;60.80
44579;DHT22;37422;51.402;0.016;2023-02-08T13:28:23;16.30;60.20
44579;DHT22;37422;51.402;0.016;2023-02-08T13:30:58;15.70;60.60
44579;DHT22;37422;51.402;0.016;2023-02-08T13:33:49;14.70;59.60
44579;DHT22;37422;51.402;0.016;2023-02-08T13:36:36;13.70;60.60
44579;DHT22;37422;51.402;0.016;2023-02-08T13:41:53;11.60;63.70
44579;DHT22;37422;51.402;0.016;2023-02-08T13:44:32;11.00;64.60
44579;DHT22;37422;51.402;0.016;2023-02-08T13:47:01;10.50;66.40
44579;DHT22;37422;51.402;0.016;2023-02-08T14:03:22;9.00;74.80
44579;DHT22;37422;51.402;0.016;2023-02-08T14:05:59;8.90;74.60
44579;DHT22;37422;51.402;0.016;2023-02-08T14:08:40;8.80;76.50
44579;DHT22;37422;51.402;0.016;2023-02-08T14:14:04;8.70;78.00
44579;DHT22;37422;51.402;0.016;2023-02-08T14:16:33;8.60;79.20
44579;DHT22;37422;51.402;0.016;2023-02-08T14:19:04;8.60;78.50
44579;DHT22;37422;51.402;0.016;2023-02-08T14:21:46;8.60;80.20
44579;DHT22;37422;51.402;0.016;2023-02-08T14:24:29;8.50;79.60
44579;DHT22;37422;51.402;0.016;2023-02-08T14:32:36;8.30;82.80
44579;DHT22;37422;51.402;0.016;2023-02-08T14:37:40;8.30;82.10
44579;DHT22;37422;51.402;0.016;2023-02-08T14:42:58;8.30;82.80
44579;DHT22;37422;51.402;0.016;2023-02-08T14:45:36;8.20;81.80
44579;DHT22;37422;51.402;0.016;2023-02-08T14:50:37;8.20;82.60
44579;DHT22;37422;51.402;0.016;2023-02-08T14:56:06;8.20;84.30
44579;DHT22;37422;51.402;0.016;2023-02-08T14:58:43;8.10;84.30
44579;DHT22;37422;51.402;0.016;2023-02-08T15:01:40;8.10;83.50
44579;DHT22;37422;51.402;0.016;2023-02-08T15:04:11;8.20;84.30
44579;DHT22;37422;51.402;0.016;2023-02-08T15:09:29;8.20;83.90
44579;DHT22;37422;51.402;0.016;2023-02-08T15:14:39;8.10;83.20
44579;DHT22;37422;51.402;0.016;2023-02-08T15:19:55;8.10;79.80
44579;DHT22;37422;51.402;0.016;2023-02-08T15:24:56;8.10;79.70
44579;DHT22;37422;51.402;0.016;2023-02-08T15:27:28;8.00;79.10
44579;DHT22;37422;51.402;0.016;2023-02-08T15:29:57;8.00;79.50
44579;DHT22;37422;51.402;0.016;2023-02-08T15:32:27;8.00;80.10
44579;DHT22;37422;51.402;0.016;2023-02-08T15:35:00;8.00;80.60
44579;DHT22;37422;51.402;0.016;2023-02-08T15:37:31;7.90;81.20
44579;DHT22;37422;51.402;0.016;2023-02-08T15:40:00;7.90;82.30
44579;DHT22;37422;51.402;0.016;2023-02-08T15:42:32;7.90;81.90
44579;DHT22;37422;51.402;0.016;2023-02-08T15:45:00;7.80;82.20
44579;DHT22;37422;51.402;0.016;2023-02-08T15:47:30;7.80;83.30
44579;DHT22;37422;51.402;0.016;2023-02-08T15:49:59;7.70;83.20
44579;DHT22;37422;51.402;0.016;2023-02-08T15:52:30;7.40;83.50
44579;DHT22;37422;51.402;0.016;2023-02-08T15:54:58;7.70;84.40
44579;DHT22;37422;51.402;0.016;2023-02-08T15:57:33;7.60;86.50
44579;DHT22;37422;51.402;0.016;2023-02-08T16:00:06;7.50;85.50
44579;DHT22;37422;51.402;0.016;2023-02-08T16:02:40;7.50;85.40
44579;DHT22;37422;51.402;0.016;2023-02-08T16:05:17;7.50;85.50
44579;DHT22;37422;51.402;0.016;2023-02-08T16:07:46;7.40;85.90
44579;DHT22;37422;51.402;0.016;2023-02-08T16:13:00;7.40;88.00
44579;DHT22;37422;51.402;0.016;2023-02-08T16:15:43;7.30;87.30
44579;DHT22;37422;51.402;0.016;2023-02-08T16:18:33;7.20;88.30
44579;DHT22;37422;51.402;0.016;2023-02-08T16:21:04;7.20;90.00
44579;DHT22;37422;51.402;0.016;2023-02-08T16:23:34;7.20;91.00
44579;DHT22;37422;51.402;0.016;2023-02-08T16:26:24;7.20;89.40
44579;DHT22;37422;51.402;0.016;2023-02-08T16:28:57;7.10;90.00
44579;DHT22;37422;51.402;0.016;2023-02-08T16:31:28;7.10;89.80
44579;DHT22;37422;51.402;0.016;2023-02-08T16:34:16;7.00;89.80
44579;DHT22;37422;51.402;0.016;2023-02-08T16:36:49;7.00;90.20
44579;DHT22;37422;51.402;0.016;2023-02-08T16:41:59;6.80;90.20
44579;DHT22;37422;51.402;0.016;2023-02-08T16:47:26;6.60;90.90
44579;DHT22;37422;51.402;0.016;2023-02-08T16:49:54;6.50;91.00
44579;DHT22;37422;51.402;0.016;2023-02-08T16:52:22;6.50;91.20
44579;DHT22;37422;51.402;0.016;2023-02-08T16:54:50;6.40;91.30
44579;DHT22;37422;51.402;0.016;2023-02-08T16:57:17;6.40;91.30
44579;DHT22;37422;51.402;0.016;2023-02-08T16:59:45;6.30;91.40
44579;DHT22;37422;51.402;0.016;2023-02-08T17:02:13;6.20;91.60
44579;DHT22;37422;51.402;0.016;2023-02-08T17:04:40;6.10;91.80
44579;DHT22;37422;51.402;0.016;2023-02-08T17:07:16;6.00;92.10
44579;DHT22;37422;51.402;0.016;2023-02-08T17:09:44;5.90;92.40
44579;DHT22;37422;51.402;0.016;2023-02-08T17:12:12;5.80;92.60
44579;DHT22;37422;51.402;0.016;2023-02-08T17:14:49;5.70;92.70
44579;DHT22;37422;51.402;0.016;2023-02-08T17:17:17;5.60;92.90
44579;DHT22;37422;51.402;0.016;2023-02-08T17:19:46;5.50;93.20
44579;DHT22;37422;51.402;0.016;2023-02-08T17:22:14;5.30;93.30
44579;DHT22;37422;51.402;0.016;2023-02-08T17:24:42;5.20;93.70
44579;DHT22;37422;51.402;0.016;2023-02-08T17:27:13;5.10;93.80
44579;DHT22;37422;51.402;0.016;2023-02-08T17:29:41;4.90;94.10
44579;DHT22;37422;51.402;0.016;2023-02-08T17:32:09;4.80;94.40
44579;DHT22;37422;51.402;0.016;2023-02-08T17:34:36;4.70;94.70
44579;DHT22;37422;51.402;0.016;2023-02-08T17:37:05;4.60;95.00
44579;DHT22;37422;51.402;0.016;2023-02-08T17:39:33;4.50;95.30
44579;DHT22;37422;51.402;0.016;2023-02-08T17:42:01;4.40;95.50
44579;DHT22;37422;51.402;0.016;2023-02-08T17:44:28;4.30;95.70
44579;DHT22;37422;51.402;0.016;2023-02-08T17:46:56;4.20;96.00
44579;DHT22;37422;51.402;0.016;2023-02-08T17:49:24;4.10;96.30
44579;DHT22;37422;51.402;0.016;2023-02-08T17:51:52;4.10;96.50
44579;DHT22;37422;51.402;0.016;2023-02-08T17:54:19;4.00;96.80
44579;DHT22;37422;51.402;0.016;2023-02-08T17:56:47;3.90;97.00
44579;DHT22;37422;51.402;0.016;2023-02-08T17:59:15;3.90;97.30
44579;DHT22;37422;51.402;0.016;2023-02-08T18:01:43;3.80;97.40
44579;DHT22;37422;51.402;0.016;2023-02-08T18:04:12;3.80;97.60
44579;DHT22;37422;51.402;0.016;2023-02-08T18:06:39;3.70;97.70
44579;DHT22;37422;51.402;0.016;2023-02-08T18:09:10;3.70;97.80
44579;DHT22;37422;51.402;0.016;2023-02-08T18:11:38;3.60;97.90
44579;DHT22;37422;51.402;0.016;2023-02-08T18:14:06;3.50;98.10
44579;DHT22;37422;51.402;0.016;2023-02-08T18:16:34;3.50;98.30
44579;DHT22;37422;51.402;0.016;2023-02-08T18:19:02;3.40;98.40
44579;DHT22;37422;51.402;0.016;2023-02-08T18:21:34;3.30;98.60
44579;DHT22;37422;51.402;0.016;2023-02-08T18:24:03;3.20;98.70
44579;DHT22;37422;51.402;0.016;2023-02-08T18:26:32;3.10;99.20
44579;DHT22;37422;51.402;0.016;2023-02-08T18:29:02;3.00;99.30
44579;DHT22;37422;51.402;0.016;2023-02-08T18:31:30;2.90;99.60
44579;DHT22;37422;51.402;0.016;2023-02-08T18:33:59;2.90;99.70
44579;DHT22;37422;51.402;0.016;2023-02-08T18:36:29;2.80;99.80
44579;DHT22;37422;51.402;0.016;2023-02-08T18:38:57;2.70;99.90
44579;DHT22;37422;51.402;0.016;2023-02-08T18:41:27;2.70;99.90
44579;DHT22;37422;51.402;0.016;2023-02-08T18:43:56;2.60;99.90
44579;DHT22;37422;51.402;0.016;2023-02-08T18:46:26;2.60;99.90